SWA3154 KMCO-KMIA
Flight info
| Callsign | SWA3154 |
|---|---|
| Flight time | 0h 40m |
| Altitude | 25000 |
| Route | DDANY3 DDANY CSTAL3 |
| Aircraft | B737/M-SADE2E3GIJ4RWZ/LB1D1 |
Departure
| Time | 2026-04-23 14:59 |
|---|---|
| Airport | Orlando International Airport (KMCO) |
Arrival
| Time | 2026-04-23 15:39 |
|---|---|
| Airport | Miami International Airport (KMIA) |
| Time | Latitude | Longitude | Altitude | Speed | Heading |
|---|---|---|---|---|---|
| 2026-04-23 14:23 | 28.43631 | -81.30151 | 93 ft | 0 kts | 178° |
| 2026-04-23 14:50 | 28.43638 | -81.30151 | 95 ft | 4 kts | 179° |
| 2026-04-23 14:51 | 28.43665 | -81.30151 | 92 ft | 4 kts | 175° |
| 2026-04-23 14:51 | 28.43686 | -81.30157 | 93 ft | 3 kts | 154° |
| 2026-04-23 14:51 | 28.43711 | -81.30169 | 93 ft | 4 kts | 148° |
| 2026-04-23 14:51 | 28.43728 | -81.30189 | 94 ft | 4 kts | 121° |
| 2026-04-23 14:52 | 28.43737 | -81.30217 | 92 ft | 4 kts | 91° |
| 2026-04-23 14:52 | 28.43732 | -81.30246 | 93 ft | 4 kts | 62° |
| 2026-04-23 14:52 | 28.43717 | -81.30271 | 94 ft | 4 kts | 48° |
| 2026-04-23 14:52 | 28.43703 | -81.30288 | 93 ft | 0 kts | 52° |
| 2026-04-23 14:55 | 28.43716 | -81.30270 | 94 ft | 6 kts | 52° |
| 2026-04-23 14:55 | 28.43755 | -81.30214 | 95 ft | 12 kts | 52° |
| 2026-04-23 14:56 | 28.43835 | -81.30170 | 96 ft | 14 kts | 2° |
| 2026-04-23 14:56 | 28.43900 | -81.30144 | 99 ft | 8 kts | 63° |
| 2026-04-23 14:56 | 28.43899 | -81.30060 | 98 ft | 14 kts | 92° |
| 2026-04-23 14:56 | 28.43872 | -81.29938 | 97 ft | 18 kts | 116° |
| 2026-04-23 14:57 | 28.43781 | -81.29834 | 95 ft | 19 kts | 152° |
| 2026-04-23 14:57 | 28.43663 | -81.29808 | 94 ft | 16 kts | 180° |
| 2026-04-23 14:57 | 28.43558 | -81.29783 | 95 ft | 15 kts | 123° |
| 2026-04-23 14:57 | 28.43550 | -81.29672 | 97 ft | 13 kts | 90° |
| 2026-04-23 14:58 | 28.43535 | -81.29591 | 97 ft | 9 kts | 148° |
| 2026-04-23 14:58 | 28.43432 | -81.29585 | 97 ft | 37 kts | 179° |
| 2026-04-23 14:58 | 28.42915 | -81.29580 | 97 ft | 111 kts | 179° |
| 2026-04-23 14:58 | 28.41929 | -81.29571 | 118 ft | 168 kts | 176° |
| 2026-04-23 14:59 | 28.40731 | -81.29563 | 793 ft | 173 kts | 176° |
| 2026-04-23 14:59 | 28.39530 | -81.29544 | 1647 ft | 174 kts | 176° |
| 2026-04-23 14:59 | 28.38274 | -81.29328 | 2061 ft | 197 kts | 150° |
| 2026-04-23 14:59 | 28.37045 | -81.28444 | 2349 ft | 224 kts | 145° |
| 2026-04-23 15:00 | 28.35662 | -81.27416 | 2679 ft | 250 kts | 146° |
| 2026-04-23 15:00 | 28.34220 | -81.26268 | 3450 ft | 256 kts | 138° |
| 2026-04-23 15:00 | 28.32938 | -81.24864 | 4403 ft | 255 kts | 133° |
| 2026-04-23 15:00 | 28.31884 | -81.23243 | 5280 ft | 260 kts | 110° |
| 2026-04-23 15:01 | 28.31570 | -81.21232 | 6403 ft | 261 kts | 97° |
| 2026-04-23 15:01 | 28.31364 | -81.19150 | 6878 ft | 267 kts | 97° |
| 2026-04-23 15:01 | 28.31163 | -81.17026 | 7775 ft | 273 kts | 97° |
| 2026-04-23 15:01 | 28.31027 | -81.15601 | 8486 ft | 275 kts | 97° |
| 2026-04-23 15:02 | 28.30812 | -81.13418 | 9470 ft | 283 kts | 97° |
| 2026-04-23 15:02 | 28.30584 | -81.11152 | 10295 ft | 295 kts | 96° |
| 2026-04-23 15:02 | 28.30336 | -81.08728 | 10602 ft | 325 kts | 96° |
| 2026-04-23 15:02 | 28.30061 | -81.06077 | 11037 ft | 347 kts | 97° |
| 2026-04-23 15:03 | 28.29772 | -81.03321 | 11803 ft | 356 kts | 97° |
| 2026-04-23 15:03 | 28.29475 | -81.00504 | 12659 ft | 363 kts | 97° |
| 2026-04-23 15:03 | 28.29172 | -80.97640 | 13559 ft | 368 kts | 97° |
| 2026-04-23 15:03 | 28.28864 | -80.94733 | 14403 ft | 374 kts | 97° |
| 2026-04-23 15:04 | 28.28550 | -80.91789 | 15216 ft | 379 kts | 97° |
| 2026-04-23 15:04 | 28.28232 | -80.88796 | 16008 ft | 385 kts | 97° |
| 2026-04-23 15:04 | 28.27772 | -80.85781 | 16742 ft | 392 kts | 104° |
| 2026-04-23 15:04 | 28.26869 | -80.82842 | 17480 ft | 398 kts | 112° |
| 2026-04-23 15:05 | 28.25786 | -80.79928 | 18215 ft | 404 kts | 114° |
| 2026-04-23 15:05 | 28.24680 | -80.76974 | 18854 ft | 410 kts | 113° |
| 2026-04-23 15:05 | 28.23582 | -80.73965 | 19512 ft | 415 kts | 113° |
| 2026-04-23 15:05 | 28.22441 | -80.70937 | 20181 ft | 419 kts | 119° |
| 2026-04-23 15:06 | 28.20669 | -80.68328 | 20776 ft | 421 kts | 140° |
| 2026-04-23 15:06 | 28.18300 | -80.66486 | 21452 ft | 418 kts | 158° |
| 2026-04-23 15:06 | 28.15559 | -80.65432 | 22163 ft | 417 kts | 168° |
| 2026-04-23 15:06 | 28.12739 | -80.64595 | 22789 ft | 421 kts | 170° |
| 2026-04-23 15:07 | 28.09885 | -80.63790 | 23359 ft | 426 kts | 170° |
| 2026-04-23 15:07 | 28.06988 | -80.62972 | 23906 ft | 431 kts | 170° |
| 2026-04-23 15:07 | 28.04070 | -80.62133 | 24428 ft | 434 kts | 170° |
| 2026-04-23 15:07 | 28.01138 | -80.61273 | 24957 ft | 437 kts | 169° |
| 2026-04-23 15:08 | 27.98179 | -80.60395 | 25143 ft | 441 kts | 169° |
| 2026-04-23 15:08 | 27.95206 | -80.59505 | 25151 ft | 441 kts | 169° |
| 2026-04-23 15:08 | 27.92245 | -80.58615 | 25152 ft | 441 kts | 169° |
| 2026-04-23 15:09 | 27.86321 | -80.56837 | 25165 ft | 441 kts | 169° |
| 2026-04-23 15:09 | 27.83355 | -80.55948 | 25168 ft | 441 kts | 169° |
| 2026-04-23 15:09 | 27.80392 | -80.55062 | 25167 ft | 441 kts | 169° |
| 2026-04-23 15:09 | 27.77425 | -80.54175 | 25168 ft | 441 kts | 169° |
| 2026-04-23 15:10 | 27.74462 | -80.53290 | 25170 ft | 441 kts | 169° |
| 2026-04-23 15:10 | 27.71492 | -80.52403 | 25177 ft | 441 kts | 169° |
| 2026-04-23 15:10 | 27.68529 | -80.51520 | 25174 ft | 441 kts | 169° |
| 2026-04-23 15:10 | 27.65563 | -80.50628 | 25172 ft | 441 kts | 168° |
| 2026-04-23 15:11 | 27.62631 | -80.49593 | 25176 ft | 443 kts | 165° |
| 2026-04-23 15:11 | 27.59722 | -80.48439 | 25177 ft | 443 kts | 164° |
| 2026-04-23 15:11 | 27.56822 | -80.47244 | 25171 ft | 444 kts | 164° |
| 2026-04-23 15:11 | 27.53921 | -80.46048 | 25167 ft | 444 kts | 164° |
| 2026-04-23 15:12 | 27.51015 | -80.44865 | 25167 ft | 444 kts | 164° |
| 2026-04-23 15:12 | 27.48113 | -80.43698 | 25162 ft | 443 kts | 164° |
| 2026-04-23 15:12 | 27.45243 | -80.42556 | 25165 ft | 443 kts | 165° |
| 2026-04-23 15:12 | 27.42339 | -80.41407 | 25167 ft | 443 kts | 165° |
| 2026-04-23 15:13 | 27.39434 | -80.40260 | 25164 ft | 443 kts | 165° |
| 2026-04-23 15:13 | 27.36524 | -80.39112 | 25164 ft | 442 kts | 165° |
| 2026-04-23 15:13 | 27.33618 | -80.37965 | 25159 ft | 442 kts | 165° |
| 2026-04-23 15:13 | 27.30716 | -80.36820 | 25150 ft | 442 kts | 165° |
| 2026-04-23 15:14 | 27.27812 | -80.35675 | 25150 ft | 442 kts | 165° |
| 2026-04-23 15:14 | 27.24906 | -80.34529 | 25157 ft | 442 kts | 165° |
| 2026-04-23 15:14 | 27.22008 | -80.33387 | 25158 ft | 442 kts | 165° |
| 2026-04-23 15:14 | 27.19096 | -80.32246 | 25154 ft | 442 kts | 165° |
| 2026-04-23 15:15 | 27.16191 | -80.31116 | 25153 ft | 442 kts | 165° |
| 2026-04-23 15:15 | 27.13287 | -80.29990 | 25156 ft | 442 kts | 165° |
| 2026-04-23 15:15 | 27.10381 | -80.28864 | 25155 ft | 442 kts | 165° |
| 2026-04-23 15:15 | 27.07478 | -80.27739 | 25153 ft | 441 kts | 165° |
| 2026-04-23 15:16 | 27.04611 | -80.26626 | 25138 ft | 430 kts | 165° |
| 2026-04-23 15:16 | 27.01799 | -80.25534 | 25143 ft | 426 kts | 165° |
| 2026-04-23 15:16 | 26.99004 | -80.24451 | 25149 ft | 425 kts | 165° |
| 2026-04-23 15:16 | 26.96205 | -80.23369 | 25155 ft | 426 kts | 165° |
| 2026-04-23 15:17 | 26.93393 | -80.22282 | 24725 ft | 428 kts | 165° |
| 2026-04-23 15:17 | 26.90579 | -80.21193 | 24201 ft | 427 kts | 164° |
| 2026-04-23 15:17 | 26.87787 | -80.20112 | 23619 ft | 423 kts | 164° |
| 2026-04-23 15:17 | 26.85011 | -80.19044 | 22958 ft | 420 kts | 165° |
| 2026-04-23 15:18 | 26.82273 | -80.18022 | 22315 ft | 410 kts | 165° |
| 2026-04-23 15:18 | 26.79593 | -80.17035 | 21704 ft | 400 kts | 165° |
| 2026-04-23 15:18 | 26.76975 | -80.16071 | 21145 ft | 394 kts | 165° |
| 2026-04-23 15:18 | 26.74376 | -80.15113 | 20598 ft | 394 kts | 165° |
| 2026-04-23 15:19 | 26.71779 | -80.14153 | 20195 ft | 389 kts | 165° |
| 2026-04-23 15:19 | 26.69217 | -80.13298 | 19695 ft | 383 kts | 170° |
| 2026-04-23 15:19 | 26.66633 | -80.12621 | 19180 ft | 380 kts | 171° |
| 2026-04-23 15:19 | 26.64091 | -80.11979 | 18636 ft | 378 kts | 171° |
| 2026-04-23 15:20 | 26.61499 | -80.11301 | 18023 ft | 377 kts | 171° |
| 2026-04-23 15:20 | 26.58940 | -80.10623 | 17329 ft | 378 kts | 171° |
| 2026-04-23 15:20 | 26.56390 | -80.09978 | 16740 ft | 374 kts | 171° |
| 2026-04-23 15:20 | 26.53855 | -80.09350 | 16193 ft | 372 kts | 171° |
| 2026-04-23 15:21 | 26.51343 | -80.08729 | 15646 ft | 369 kts | 171° |
| 2026-04-23 15:21 | 26.48872 | -80.08115 | 15103 ft | 366 kts | 171° |
| 2026-04-23 15:21 | 26.46391 | -80.07496 | 14561 ft | 364 kts | 171° |
| 2026-04-23 15:21 | 26.43914 | -80.06928 | 14005 ft | 363 kts | 172° |
| 2026-04-23 15:22 | 26.41439 | -80.06411 | 13422 ft | 361 kts | 172° |
| 2026-04-23 15:22 | 26.38981 | -80.05898 | 12971 ft | 355 kts | 171° |
| 2026-04-23 15:22 | 26.36621 | -80.05286 | 12837 ft | 342 kts | 168° |
| 2026-04-23 15:22 | 26.34360 | -80.04645 | 12679 ft | 329 kts | 168° |
| 2026-04-23 15:23 | 26.32182 | -80.04027 | 12536 ft | 317 kts | 168° |
| 2026-04-23 15:23 | 26.30077 | -80.03438 | 12422 ft | 309 kts | 168° |
| 2026-04-23 15:23 | 26.27998 | -80.02866 | 12289 ft | 307 kts | 168° |
| 2026-04-23 15:23 | 26.25908 | -80.02332 | 12150 ft | 308 kts | 175° |
| 2026-04-23 15:24 | 26.23795 | -80.02474 | 12050 ft | 305 kts | 194° |
| 2026-04-23 15:24 | 26.21703 | -80.02951 | 11925 ft | 308 kts | 195° |
| 2026-04-23 15:24 | 26.19611 | -80.03455 | 11798 ft | 307 kts | 195° |
| 2026-04-23 15:24 | 26.17517 | -80.03951 | 11659 ft | 307 kts | 194° |
| 2026-04-23 15:25 | 26.15425 | -80.04445 | 11521 ft | 307 kts | 194° |
| 2026-04-23 15:25 | 26.13365 | -80.04920 | 11394 ft | 306 kts | 195° |
| 2026-04-23 15:25 | 26.11278 | -80.05412 | 11268 ft | 306 kts | 195° |
| 2026-04-23 15:25 | 26.09199 | -80.05893 | 11138 ft | 303 kts | 194° |
| 2026-04-23 15:26 | 26.07159 | -80.06369 | 11014 ft | 299 kts | 195° |
| 2026-04-23 15:26 | 26.05111 | -80.06864 | 10759 ft | 303 kts | 195° |
| 2026-04-23 15:26 | 26.03050 | -80.07398 | 10528 ft | 305 kts | 195° |
| 2026-04-23 15:26 | 26.00999 | -80.07936 | 10278 ft | 300 kts | 195° |
| 2026-04-23 15:27 | 25.99004 | -80.08457 | 10024 ft | 288 kts | 195° |
| 2026-04-23 15:27 | 25.97075 | -80.08955 | 9779 ft | 284 kts | 195° |
| 2026-04-23 15:27 | 25.95148 | -80.09456 | 9540 ft | 285 kts | 195° |
| 2026-04-23 15:27 | 25.93226 | -80.09974 | 9338 ft | 282 kts | 200° |
| 2026-04-23 15:28 | 25.91552 | -80.11058 | 9053 ft | 279 kts | 225° |
| 2026-04-23 15:28 | 25.90235 | -80.12609 | 8874 ft | 275 kts | 230° |
| 2026-04-23 15:28 | 25.88966 | -80.14201 | 8628 ft | 274 kts | 231° |
| 2026-04-23 15:28 | 25.88048 | -80.16022 | 8397 ft | 270 kts | 255° |
| 2026-04-23 15:29 | 25.87807 | -80.18038 | 8204 ft | 267 kts | 269° |
| 2026-04-23 15:29 | 25.87768 | -80.20122 | 7863 ft | 276 kts | 270° |
| 2026-04-23 15:29 | 25.87731 | -80.22276 | 7434 ft | 281 kts | 269° |
| 2026-04-23 15:29 | 25.87677 | -80.24444 | 6987 ft | 279 kts | 269° |
| 2026-04-23 15:30 | 25.87614 | -80.26577 | 6567 ft | 276 kts | 268° |
| 2026-04-23 15:30 | 25.87623 | -80.28714 | 6109 ft | 278 kts | 281° |
| 2026-04-23 15:30 | 25.88297 | -80.30697 | 5828 ft | 272 kts | 299° |
| 2026-04-23 15:30 | 25.89204 | -80.32537 | 5519 ft | 270 kts | 300° |
| 2026-04-23 15:31 | 25.90114 | -80.34350 | 5228 ft | 267 kts | 300° |
| 2026-04-23 15:31 | 25.91008 | -80.36153 | 4957 ft | 265 kts | 300° |
| 2026-04-23 15:31 | 25.91888 | -80.37951 | 4650 ft | 265 kts | 300° |
| 2026-04-23 15:31 | 25.92773 | -80.39766 | 4386 ft | 269 kts | 299° |
| 2026-04-23 15:32 | 25.93595 | -80.41641 | 4121 ft | 269 kts | 285° |
| 2026-04-23 15:32 | 25.93783 | -80.43680 | 4080 ft | 262 kts | 269° |
| 2026-04-23 15:32 | 25.93745 | -80.45671 | 4055 ft | 253 kts | 268° |
| 2026-04-23 15:32 | 25.93693 | -80.47584 | 4037 ft | 243 kts | 265° |
| 2026-04-23 15:33 | 25.93126 | -80.49297 | 3798 ft | 235 kts | 225° |
| 2026-04-23 15:33 | 25.91789 | -80.50142 | 3744 ft | 217 kts | 185° |
| 2026-04-23 15:33 | 25.90400 | -80.49807 | 3630 ft | 205 kts | 141° |
| 2026-04-23 15:33 | 25.89502 | -80.48632 | 3529 ft | 195 kts | 124° |
| 2026-04-23 15:34 | 25.88743 | -80.47421 | 3330 ft | 185 kts | 122° |
| 2026-04-23 15:34 | 25.88099 | -80.46252 | 3173 ft | 168 kts | 119° |
| 2026-04-23 15:34 | 25.87542 | -80.45173 | 2979 ft | 157 kts | 118° |
| 2026-04-23 15:34 | 25.87014 | -80.44140 | 2797 ft | 156 kts | 118° |
| 2026-04-23 15:35 | 25.86476 | -80.43088 | 2589 ft | 157 kts | 118° |
| 2026-04-23 15:35 | 25.85941 | -80.42035 | 2376 ft | 156 kts | 117° |
| 2026-04-23 15:35 | 25.85440 | -80.41044 | 2178 ft | 156 kts | 118° |
| 2026-04-23 15:35 | 25.84905 | -80.39999 | 1982 ft | 155 kts | 118° |
| 2026-04-23 15:36 | 25.84372 | -80.38958 | 1771 ft | 155 kts | 118° |
| 2026-04-23 15:36 | 25.83855 | -80.37938 | 1602 ft | 145 kts | 118° |
| 2026-04-23 15:36 | 25.83381 | -80.37012 | 1381 ft | 131 kts | 117° |
| 2026-04-23 15:36 | 25.82942 | -80.36150 | 1199 ft | 126 kts | 117° |
| 2026-04-23 15:37 | 25.82507 | -80.35295 | 1058 ft | 127 kts | 117° |
| 2026-04-23 15:37 | 25.82066 | -80.34442 | 882 ft | 128 kts | 118° |
| 2026-04-23 15:37 | 25.81771 | -80.33853 | 773 ft | 130 kts | 118° |
| 2026-04-23 15:37 | 25.81188 | -80.32695 | 565 ft | 132 kts | 119° |
| 2026-04-23 15:38 | 25.80734 | -80.31808 | 411 ft | 133 kts | 121° |
| 2026-04-23 15:38 | 25.80279 | -80.30914 | 214 ft | 132 kts | 121° |
| 2026-04-23 15:38 | 25.79838 | -80.30054 | 28 ft | 124 kts | 120° |
| 2026-04-23 15:38 | 25.79462 | -80.29314 | 16 ft | 90 kts | 119° |
| 2026-04-23 15:39 | 25.79268 | -80.28930 | 13 ft | 47 kts | 120° |
| 2026-04-23 15:39 | 25.79126 | -80.28652 | 15 ft | 33 kts | 119° |
| 2026-04-23 15:39 | 25.79021 | -80.28448 | 17 ft | 23 kts | 119° |
| 2026-04-23 15:39 | 25.78975 | -80.28308 | 18 ft | 14 kts | 97° |
| 2026-04-23 15:40 | 25.78975 | -80.28218 | 19 ft | 10 kts | 86° |
| 2026-04-23 15:40 | 25.79005 | -80.28169 | 20 ft | 7 kts | 40° |
| 2026-04-23 15:40 | 25.79045 | -80.28123 | 21 ft | 9 kts | 54° |
| 2026-04-23 15:40 | 25.79083 | -80.28072 | 22 ft | 9 kts | 38° |
| 2026-04-23 15:41 | 25.79145 | -80.28037 | 20 ft | 10 kts | 26° |
| 2026-04-23 15:41 | 25.79208 | -80.28002 | 21 ft | 9 kts | 28° |
| 2026-04-23 15:41 | 25.79227 | -80.27960 | 21 ft | 4 kts | 120° |
| 2026-04-23 15:41 | 25.79206 | -80.27941 | 21 ft | 4 kts | 145° |
| 2026-04-23 15:42 | 25.79200 | -80.27937 | 21 ft | 0 kts | 145° |
| 2026-04-23 15:44 | 25.79201 | -80.27937 | 21 ft | 0 kts | 145° |